createdAt,value
2023-03-06T00:00:21.855Z,82.09
2023-03-06T00:01:21.861Z,82.09
2023-03-06T00:02:21.807Z,82.13
2023-03-06T00:03:21.867Z,82.23
2023-03-06T00:04:21.899Z,82.23
2023-03-06T00:05:21.791Z,82.34
2023-03-06T00:06:21.768Z,82.44
2023-03-06T00:07:21.748Z,82.44
2023-03-06T00:08:21.739Z,82.44
2023-03-06T00:09:21.743Z,82.44
2023-03-06T00:10:21.740Z,82.44
2023-03-06T00:11:21.710Z,82.54
2023-03-06T00:12:21.699Z,82.54
2023-03-06T00:13:21.703Z,82.44
2023-03-06T00:14:21.685Z,82.54
2023-03-06T00:15:21.689Z,82.54
2023-03-06T00:16:21.756Z,82.65
2023-03-06T00:17:21.650Z,82.75
2023-03-06T00:18:21.665Z,82.75
2023-03-06T00:19:21.642Z,82.86
2023-03-06T00:20:21.659Z,82.86
2023-03-06T00:21:21.614Z,82.75
2023-03-06T00:22:21.623Z,82.75
2023-03-06T00:23:21.601Z,82.75
2023-03-06T00:24:21.589Z,82.75
2023-03-06T00:25:21.588Z,82.75
2023-03-06T00:26:21.571Z,82.65
2023-03-06T00:27:21.544Z,82.54
2023-03-06T00:28:21.554Z,82.44
2023-03-06T00:29:21.537Z,82.34
2023-03-06T00:30:21.537Z,82.44
2023-03-06T00:31:21.525Z,82.23
2023-03-06T00:32:21.536Z,82.23
2023-03-06T00:33:21.492Z,82.44
2023-03-06T00:34:21.500Z,82.54
2023-03-06T00:35:21.526Z,82.54
2023-03-06T00:36:21.467Z,82.54
2023-03-06T00:37:21.457Z,82.54
2023-03-06T00:38:21.425Z,82.54
2023-03-06T00:39:21.445Z,82.44
2023-03-06T00:40:21.428Z,82.34
2023-03-06T00:41:21.413Z,82.34
2023-03-06T00:42:21.413Z,82.54
2023-03-06T00:43:21.389Z,82.75
2023-03-06T00:44:21.368Z,82.79
2023-03-06T00:45:21.390Z,83.00
2023-03-06T00:46:21.374Z,83.06
2023-03-06T00:47:21.338Z,82.86
2023-03-06T00:48:21.331Z,82.89
2023-03-06T00:49:21.318Z,83.00
2023-03-06T00:50:21.332Z,83.10
2023-03-06T00:51:21.295Z,83.31
2023-03-06T00:52:21.294Z,83.20
2023-03-06T00:53:21.269Z,83.31
2023-03-06T00:54:21.285Z,83.31
2023-03-06T00:55:21.264Z,83.42
2023-03-06T00:56:21.265Z,83.31
2023-03-06T00:57:21.242Z,83.52
2023-03-06T00:58:21.220Z,83.62
2023-03-06T00:59:21.210Z,83.73
2023-03-06T01:00:21.229Z,83.83
2023-03-06T01:01:21.287Z,83.94
2023-03-06T01:02:21.197Z,83.83
2023-03-06T01:03:21.170Z,83.73
2023-03-06T01:04:21.160Z,83.62
2023-03-06T01:05:21.149Z,83.52
2023-03-06T01:06:21.181Z,83.42
2023-03-06T01:07:21.133Z,83.42
2023-03-06T01:08:21.119Z,83.52
2023-03-06T01:09:21.121Z,83.62
2023-03-06T01:10:21.108Z,83.62
2023-03-06T01:11:21.109Z,83.52
2023-03-06T01:12:23.382Z,83.62
2023-03-06T01:13:21.078Z,83.27
2023-03-06T01:14:21.061Z,83.31
2023-03-06T01:15:21.055Z,83.20
2023-03-06T01:16:21.108Z,83.31
2023-03-06T01:17:21.021Z,83.42
2023-03-06T01:18:21.018Z,83.42
2023-03-06T01:19:21.009Z,83.52
2023-03-06T01:20:20.994Z,83.52
2023-03-06T01:21:21.000Z,83.42
2023-03-06T01:22:20.971Z,83.52
2023-03-06T01:23:20.973Z,83.42
2023-03-06T01:24:20.952Z,83.42
2023-03-06T01:25:20.940Z,83.42
2023-03-06T01:26:20.951Z,83.20
2023-03-06T01:27:20.918Z,83.31
2023-03-06T01:28:20.912Z,83.52
2023-03-06T01:29:20.901Z,83.42
2023-03-06T01:30:20.895Z,83.42
2023-03-06T01:31:20.923Z,83.42
2023-03-06T01:32:20.883Z,83.42
2023-03-06T01:33:20.864Z,83.42
2023-03-06T01:34:20.843Z,83.52
2023-03-06T01:35:20.926Z,83.52
2023-03-06T01:36:20.851Z,83.62
2023-03-06T01:37:20.814Z,83.73
2023-03-06T01:38:20.816Z,83.83
2023-03-06T01:39:20.795Z,83.83
2023-03-06T01:40:20.793Z,83.83
2023-03-06T01:41:20.794Z,83.94
2023-03-06T01:42:20.766Z,83.83
2023-03-06T01:43:20.760Z,83.69
2023-03-06T01:44:20.763Z,83.69
2023-03-06T01:45:20.739Z,83.73
2023-03-06T01:46:20.752Z,83.80
2023-03-06T01:47:20.720Z,83.80
2023-03-06T01:48:20.722Z,84.00
2023-03-06T01:49:20.698Z,84.00
2023-03-06T01:50:20.692Z,84.00
2023-03-06T01:51:20.693Z,84.11
2023-03-06T01:52:20.665Z,84.25
2023-03-06T01:53:20.654Z,84.21
2023-03-06T01:54:20.745Z,84.21
2023-03-06T01:55:20.636Z,84.00
2023-03-06T01:56:20.650Z,84.11
2023-03-06T01:57:20.616Z,84.21
2023-03-06T01:58:20.616Z,84.21
2023-03-06T01:59:20.594Z,84.21
2023-03-06T02:00:20.591Z,84.42
2023-03-06T02:01:20.628Z,84.42
2023-03-06T02:02:20.641Z,84.42
2023-03-06T02:03:20.566Z,84.31
2023-03-06T02:04:20.550Z,84.42
2023-03-06T02:05:20.544Z,84.31
2023-03-06T02:06:20.548Z,84.52
2023-03-06T02:07:20.508Z,84.63
2023-03-06T02:08:20.508Z,84.63
2023-03-06T02:09:20.509Z,84.73
2023-03-06T02:10:20.481Z,84.83
2023-03-06T02:11:20.527Z,84.94
2023-03-06T02:12:20.471Z,85.04
2023-03-06T02:13:20.463Z,84.94
2023-03-06T02:14:20.440Z,84.94
2023-03-06T02:15:20.441Z,84.83
2023-03-06T02:16:20.517Z,84.83
2023-03-06T02:17:20.416Z,84.83
2023-03-06T02:18:20.406Z,84.83
2023-03-06T02:19:20.394Z,84.73
2023-03-06T02:20:20.381Z,84.83
2023-03-06T02:21:20.415Z,84.73
2023-03-06T02:22:20.354Z,84.48
2023-03-06T02:23:20.353Z,84.48
2023-03-06T02:24:20.365Z,84.73
2023-03-06T02:25:20.334Z,84.83
2023-03-06T02:26:20.340Z,85.04
2023-03-06T02:27:20.331Z,84.90
2023-03-06T02:28:20.316Z,84.69
2023-03-06T02:29:20.292Z,84.59
2023-03-06T02:30:20.283Z,84.69
2023-03-06T02:31:20.326Z,84.80
2023-03-06T02:32:20.298Z,84.80
2023-03-06T02:33:20.259Z,84.90
2023-03-06T02:34:20.241Z,85.11
2023-03-06T02:35:20.229Z,85.14
2023-03-06T02:36:20.229Z,85.35
2023-03-06T02:37:20.209Z,85.35
2023-03-06T02:38:20.202Z,85.46
2023-03-06T02:39:20.199Z,85.56
2023-03-06T02:40:20.183Z,85.56
2023-03-06T02:41:20.189Z,85.56
2023-03-06T02:42:20.152Z,85.67
2023-03-06T02:43:20.150Z,85.67
2023-03-06T02:44:20.130Z,85.77
2023-03-06T02:45:20.133Z,85.77
2023-03-06T02:46:20.330Z,85.88
2023-03-06T02:47:20.099Z,85.88
2023-03-06T02:48:20.090Z,85.98
2023-03-06T02:49:20.088Z,86.08
2023-03-06T02:50:20.067Z,85.98
2023-03-06T02:51:20.085Z,86.08
2023-03-06T02:52:20.059Z,86.19
2023-03-06T02:53:20.063Z,86.29
2023-03-06T02:54:20.024Z,86.29
2023-03-06T02:55:20.018Z,86.40
2023-03-06T02:56:20.019Z,86.50
2023-03-06T02:57:20.002Z,86.50
2023-03-06T02:58:19.991Z,86.25
2023-03-06T02:59:19.969Z,86.25
2023-03-06T03:00:19.967Z,86.04
2023-03-06T03:01:20.067Z,86.04
2023-03-06T03:02:19.942Z,86.04
2023-03-06T03:03:19.939Z,86.04
2023-03-06T03:04:19.970Z,86.04
2023-03-06T03:05:19.924Z,85.94
2023-03-06T03:06:19.912Z,85.83
2023-03-06T03:07:19.899Z,85.94
2023-03-06T03:08:19.884Z,86.15
2023-03-06T03:09:19.870Z,86.04
2023-03-06T03:10:19.852Z,86.15
2023-03-06T03:11:19.875Z,86.04
2023-03-06T03:12:19.831Z,86.25
2023-03-06T03:13:19.831Z,86.46
2023-03-06T03:14:19.810Z,86.46
2023-03-06T03:15:19.809Z,86.46
2023-03-06T03:16:19.856Z,86.35
2023-03-06T03:17:19.781Z,86.25
2023-03-06T03:18:19.781Z,86.25
2023-03-06T03:19:19.772Z,86.35
2023-03-06T03:20:19.753Z,86.35
2023-03-06T03:21:19.769Z,86.46
2023-03-06T03:22:19.745Z,86.57
2023-03-06T03:23:19.726Z,86.57
2023-03-06T03:24:19.725Z,86.46
2023-03-06T03:25:19.721Z,86.46
2023-03-06T03:26:19.719Z,86.35
2023-03-06T03:27:19.700Z,86.46
2023-03-06T03:28:19.678Z,86.46
2023-03-06T03:29:19.673Z,86.25
2023-03-06T03:30:19.652Z,86.25
2023-03-06T03:31:19.732Z,86.15
2023-03-06T03:32:19.650Z,86.15
2023-03-06T03:33:19.632Z,86.04
2023-03-06T03:34:19.620Z,85.94
2023-03-06T03:35:19.665Z,86.04
2023-03-06T03:36:19.611Z,86.04
2023-03-06T03:37:19.583Z,85.94
2023-03-06T03:38:19.580Z,85.94
2023-03-06T03:39:19.563Z,86.04
2023-03-06T03:40:19.553Z,86.15
2023-03-06T03:41:19.564Z,86.15
2023-03-06T03:42:19.524Z,86.25
2023-03-06T03:43:19.523Z,86.25
2023-03-06T03:44:19.510Z,86.25
2023-03-06T03:45:19.504Z,86.35
2023-03-06T03:46:19.513Z,86.35
2023-03-06T03:47:19.490Z,86.15
2023-03-06T03:48:19.468Z,86.25
2023-03-06T03:49:19.468Z,86.35
2023-03-06T03:50:19.452Z,86.46
2023-03-06T03:51:19.456Z,86.67
2023-03-06T03:52:19.483Z,86.67
2023-03-06T03:53:19.421Z,86.77
2023-03-06T03:54:19.408Z,86.77
2023-03-06T03:55:19.426Z,86.77
2023-03-06T03:56:19.405Z,86.77
2023-03-06T03:57:19.381Z,86.77
2023-03-06T03:58:19.368Z,86.88
2023-03-06T03:59:19.368Z,86.98
2023-03-06T04:00:19.349Z,87.08
2023-03-06T04:01:19.358Z,87.19
2023-03-06T04:02:19.393Z,87.29
2023-03-06T04:03:19.319Z,87.29
2023-03-06T04:04:19.307Z,87.40
2023-03-06T04:05:19.313Z,87.29
2023-03-06T04:06:19.278Z,87.29
2023-03-06T04:07:19.296Z,87.40
2023-03-06T04:08:19.267Z,87.40
2023-03-06T04:09:19.257Z,87.40
2023-03-06T04:10:19.238Z,87.40
2023-03-06T04:11:19.233Z,87.29
2023-03-06T04:12:19.240Z,87.40
2023-03-06T04:13:19.221Z,87.50
2023-03-06T04:14:19.210Z,87.60
2023-03-06T04:15:19.188Z,87.71
2023-03-06T04:16:19.187Z,87.71
2023-03-06T04:17:19.195Z,87.85
2023-03-06T04:18:19.151Z,87.71
2023-03-06T04:19:19.160Z,87.81
2023-03-06T04:20:19.138Z,87.81
2023-03-06T04:21:19.132Z,87.81
2023-03-06T04:22:19.135Z,87.81
2023-03-06T04:23:19.124Z,87.81
2023-03-06T04:24:19.094Z,87.81
2023-03-06T04:25:19.084Z,87.81
2023-03-06T04:26:19.090Z,87.81
2023-03-06T04:27:19.083Z,87.92
2023-03-06T04:28:19.072Z,87.81
2023-03-06T04:29:19.047Z,87.81
2023-03-06T04:30:19.033Z,87.92
2023-03-06T04:31:19.072Z,87.81
2023-03-06T04:32:21.360Z,87.81
2023-03-06T04:33:19.009Z,87.92
2023-03-06T04:34:18.996Z,87.81
2023-03-06T04:35:19.068Z,87.81
2023-03-06T04:36:18.976Z,87.92
2023-03-06T04:37:18.991Z,87.92
2023-03-06T04:38:18.959Z,87.92
2023-03-06T04:39:18.947Z,88.02
2023-03-06T04:40:18.938Z,88.02
2023-03-06T04:41:18.937Z,88.17
2023-03-06T04:42:18.932Z,88.27
2023-03-06T04:43:18.917Z,88.27
2023-03-06T04:44:18.891Z,88.37
2023-03-06T04:45:18.880Z,88.27
2023-03-06T04:46:18.880Z,88.27
2023-03-06T04:47:19.414Z,88.33
2023-03-06T04:48:18.852Z,88.33
2023-03-06T04:49:18.847Z,88.33
2023-03-06T04:50:18.833Z,88.23
2023-03-06T04:51:18.819Z,88.23
2023-03-06T04:52:18.825Z,88.33
2023-03-06T04:53:18.846Z,88.33
2023-03-06T04:54:19.158Z,88.37
2023-03-06T04:55:18.792Z,88.37
2023-03-06T04:56:18.776Z,88.48
2023-03-06T04:57:18.774Z,88.43
2023-03-06T04:58:18.760Z,88.33
2023-03-06T04:59:18.745Z,88.33
2023-03-06T05:00:18.726Z,88.33
2023-03-06T05:01:18.833Z,88.33
2023-03-06T05:02:18.758Z,88.23
2023-03-06T05:03:18.713Z,88.23
2023-03-06T05:04:18.702Z,88.23
2023-03-06T05:05:18.692Z,88.23
2023-03-06T05:06:18.664Z,88.33
2023-03-06T05:07:18.671Z,88.33
2023-03-06T05:08:18.635Z,88.33
2023-03-06T05:09:18.634Z,88.33
2023-03-06T05:10:18.622Z,88.43
2023-03-06T05:11:18.613Z,88.33
2023-03-06T05:12:18.633Z,88.23
2023-03-06T05:13:18.593Z,88.33
2023-03-06T05:14:18.577Z,88.33
2023-03-06T05:15:18.571Z,88.33
2023-03-06T05:16:18.584Z,88.43
2023-03-06T05:17:18.578Z,88.54
2023-03-06T05:18:18.540Z,88.54
2023-03-06T05:19:18.543Z,88.64
2023-03-06T05:20:18.517Z,88.75
2023-03-06T05:21:18.505Z,88.96
2023-03-06T05:22:18.514Z,88.96
2023-03-06T05:23:18.487Z,89.06
2023-03-06T05:24:18.473Z,89.06
2023-03-06T05:25:18.465Z,89.17
2023-03-06T05:26:18.455Z,89.17
2023-03-06T05:27:18.462Z,89.17
2023-03-06T05:28:18.443Z,89.17
2023-03-06T05:29:18.428Z,89.27
2023-03-06T05:30:18.424Z,89.27
2023-03-06T05:31:18.452Z,89.37
2023-03-06T05:32:18.472Z,89.37
2023-03-06T05:33:18.394Z,89.48
2023-03-06T05:34:18.368Z,89.48
2023-03-06T05:35:18.502Z,89.48
2023-03-06T05:36:18.351Z,89.58
2023-03-06T05:37:19.321Z,89.58
2023-03-06T05:38:18.341Z,89.69
2023-03-06T05:39:18.377Z,89.69
2023-03-06T05:40:18.322Z,89.73
2023-03-06T05:41:18.317Z,89.83
2023-03-06T05:42:18.356Z,89.94
2023-03-06T05:43:18.295Z,90.04
2023-03-06T05:44:18.269Z,90.04
2023-03-06T05:45:18.289Z,90.04
2023-03-06T05:46:18.345Z,90.04
2023-03-06T05:47:18.276Z,90.04
2023-03-06T05:48:18.229Z,90.04
2023-03-06T05:49:18.178Z,90.00
2023-03-06T05:50:18.184Z,89.89
2023-03-06T05:51:18.278Z,89.89
2023-03-06T05:52:18.222Z,89.89
2023-03-06T05:53:18.205Z,89.89
2023-03-06T05:54:18.189Z,89.79
2023-03-06T05:55:18.180Z,89.79
2023-03-06T05:56:18.151Z,89.69
2023-03-06T05:57:18.119Z,89.69
2023-03-06T05:58:18.086Z,89.69
2023-03-06T05:59:18.122Z,89.58
2023-03-06T06:00:18.059Z,89.58
2023-03-06T06:01:19.282Z,89.48
2023-03-06T06:02:18.218Z,89.48
2023-03-06T06:03:18.294Z,89.48
2023-03-06T06:04:18.022Z,89.48
2023-03-06T06:05:17.998Z,89.37
2023-03-06T06:06:18.010Z,89.37
2023-03-06T06:07:18.888Z,89.37
2023-03-06T06:08:17.977Z,89.37
2023-03-06T06:09:17.968Z,89.27
2023-03-06T06:10:17.952Z,89.48
2023-03-06T06:11:17.940Z,89.48
2023-03-06T06:12:17.941Z,89.69
2023-03-06T06:13:17.924Z,89.79
2023-03-06T06:14:17.908Z,90.00
2023-03-06T06:15:17.901Z,90.10
2023-03-06T06:16:17.928Z,90.25
2023-03-06T06:17:17.912Z,90.35
2023-03-06T06:18:17.871Z,90.35
2023-03-06T06:19:17.852Z,90.45
2023-03-06T06:20:17.842Z,90.56
2023-03-06T06:21:17.863Z,90.56
2023-03-06T06:22:17.857Z,90.87
2023-03-06T06:23:17.813Z,91.50
2023-03-06T06:24:17.816Z,92.02
2023-03-06T06:25:17.793Z,92.49
2023-03-06T06:26:17.794Z,92.80
2023-03-06T06:27:17.802Z,92.49
2023-03-06T06:28:17.774Z,91.87
2023-03-06T06:29:17.746Z,91.46
2023-03-06T06:30:17.743Z,90.93
2023-03-06T06:31:17.753Z,90.83
2023-03-06T06:32:17.783Z,90.72
2023-03-06T06:33:17.706Z,90.62
2023-03-06T06:34:17.705Z,90.52
2023-03-06T06:35:17.689Z,90.31
2023-03-06T06:36:17.692Z,90.20
2023-03-06T06:37:17.690Z,90.20
2023-03-06T06:38:17.671Z,90.20
2023-03-06T06:39:17.647Z,90.10
2023-03-06T06:40:17.641Z,90.00
2023-03-06T06:42:31.580Z,89.89
2023-03-06T06:43:18.608Z,89.89
2023-03-06T06:44:17.598Z,89.89
2023-03-06T06:45:17.587Z,89.89
2023-03-06T06:46:53.340Z,90.00
2023-03-06T06:47:23.063Z,90.10
2023-03-06T06:48:18.612Z,90.10
2023-03-06T06:49:17.542Z,90.10
2023-03-06T06:50:17.539Z,90.10
2023-03-06T06:51:17.531Z,90.20
2023-03-06T06:52:17.551Z,90.20
2023-03-06T06:53:17.502Z,90.31
2023-03-06T06:54:17.529Z,90.31
2023-03-06T06:55:17.485Z,90.20
2023-03-06T06:56:17.473Z,90.20
2023-03-06T06:57:17.487Z,90.10
2023-03-06T06:58:17.453Z,90.10
2023-03-06T06:59:17.710Z,90.10
2023-03-06T07:00:17.436Z,90.20
2023-03-06T07:01:17.434Z,90.20
2023-03-06T07:02:17.464Z,90.20
2023-03-06T07:03:17.404Z,90.20
2023-03-06T07:04:17.432Z,90.10
2023-03-06T07:05:17.415Z,90.00
2023-03-06T07:06:17.375Z,90.10
2023-03-06T07:07:17.363Z,90.00
2023-03-06T07:08:17.366Z,90.00
2023-03-06T07:09:17.336Z,90.00
2023-03-06T07:10:18.904Z,89.89
2023-03-06T07:11:17.336Z,89.89
2023-03-06T07:12:17.317Z,89.89
2023-03-06T07:13:17.322Z,89.89
2023-03-06T07:14:17.288Z,89.89
2023-03-06T07:15:17.280Z,89.89
2023-03-06T07:16:17.309Z,89.69
2023-03-06T07:17:17.262Z,89.79
2023-03-06T07:18:17.273Z,89.79
2023-03-06T07:19:17.231Z,89.85
2023-03-06T07:20:17.232Z,89.89
2023-03-06T07:21:17.221Z,89.95
2023-03-06T07:22:17.208Z,89.85
2023-03-06T07:23:17.209Z,89.75
2023-03-06T07:24:17.191Z,89.64
2023-03-06T07:25:17.196Z,89.64
2023-03-06T07:26:17.160Z,89.64
2023-03-06T07:27:17.152Z,89.75
2023-03-06T07:28:18.674Z,89.75
2023-03-06T07:29:17.131Z,89.85
2023-03-06T07:30:17.132Z,89.85
2023-03-06T07:31:17.129Z,89.75
2023-03-06T07:32:17.136Z,89.75
2023-03-06T07:33:17.113Z,89.85
2023-03-06T07:34:17.083Z,89.89
2023-03-06T07:35:20.312Z,89.89
2023-03-06T07:36:17.078Z,90.00
2023-03-06T07:37:17.054Z,90.31
2023-03-06T07:38:17.066Z,90.41
2023-03-06T07:39:17.025Z,90.37
2023-03-06T07:40:17.027Z,90.37
2023-03-06T07:41:17.021Z,90.47
2023-03-06T07:42:17.008Z,90.69
2023-03-06T07:43:19.585Z,90.79
2023-03-06T07:44:16.996Z,90.58
2023-03-06T07:45:16.974Z,90.47
2023-03-06T07:46:17.003Z,90.26
2023-03-06T07:47:16.951Z,90.06
2023-03-06T07:48:16.965Z,89.95
2023-03-06T07:49:16.940Z,90.06
2023-03-06T07:50:16.923Z,90.06
2023-03-06T07:51:16.914Z,89.95
2023-03-06T07:52:16.906Z,89.95
2023-03-06T07:53:16.913Z,89.92
2023-03-06T07:54:16.885Z,89.81
2023-03-06T07:55:16.864Z,89.33
2023-03-06T07:56:16.868Z,89.29
2023-03-06T07:57:16.855Z,89.50
2023-03-06T07:58:16.856Z,89.70
2023-03-06T07:59:16.848Z,89.29
2023-03-06T08:00:16.826Z,89.18
2023-03-06T08:01:16.811Z,89.39
2023-03-06T08:02:16.806Z,89.60
2023-03-06T08:03:16.903Z,89.70
2023-03-06T08:04:16.822Z,89.60
2023-03-06T08:05:16.771Z,89.18
2023-03-06T08:06:16.791Z,88.77
2023-03-06T08:07:16.760Z,88.98
2023-03-06T08:08:16.763Z,89.18
2023-03-06T08:09:16.728Z,89.29
2023-03-06T08:10:16.726Z,89.29
2023-03-06T08:11:16.700Z,89.39
2023-03-06T08:12:16.809Z,89.50
2023-03-06T08:13:16.698Z,89.60
2023-03-06T08:14:16.678Z,89.50
2023-03-06T08:15:16.689Z,88.98
2023-03-06T08:16:16.693Z,88.87
2023-03-06T08:17:16.637Z,89.08
2023-03-06T08:18:16.647Z,89.08
2023-03-06T08:19:16.620Z,88.98
2023-03-06T08:20:16.607Z,89.18
2023-03-06T08:21:16.630Z,89.29
2023-03-06T08:22:16.588Z,89.18
2023-03-06T08:23:16.597Z,89.08
2023-03-06T08:24:16.614Z,88.87
2023-03-06T08:25:16.569Z,88.77
2023-03-06T08:26:16.551Z,88.98
2023-03-06T08:27:16.529Z,88.98
2023-03-06T08:28:16.549Z,88.98
2023-03-06T08:29:16.508Z,88.56
2023-03-06T08:30:16.504Z,88.84
2023-03-06T08:31:16.509Z,89.04
2023-03-06T08:32:16.529Z,88.94
2023-03-06T08:33:16.490Z,88.94
2023-03-06T08:34:16.492Z,88.94
2023-03-06T08:35:16.454Z,88.84
2023-03-06T08:36:16.441Z,88.42
2023-03-06T08:37:16.480Z,88.42
2023-03-06T08:38:16.448Z,88.52
2023-03-06T08:39:16.411Z,88.31
2023-03-06T08:40:16.402Z,88.31
2023-03-06T08:41:16.395Z,88.62
2023-03-06T08:42:16.383Z,88.73
2023-03-06T08:43:16.391Z,88.79
2023-03-06T08:44:16.366Z,88.90
2023-03-06T08:45:16.351Z,88.59
2023-03-06T08:46:16.342Z,88.17
2023-03-06T08:47:16.345Z,87.96
2023-03-06T08:48:16.340Z,87.86
2023-03-06T08:49:16.313Z,87.76
2023-03-06T08:50:16.293Z,87.45
2023-03-06T08:51:16.286Z,87.03
2023-03-06T08:52:16.333Z,86.93
2023-03-06T08:53:16.292Z,86.93
2023-03-06T08:54:16.258Z,87.09
2023-03-06T08:55:16.244Z,86.99
2023-03-06T08:56:16.238Z,86.88
2023-03-06T08:57:16.223Z,86.99
2023-03-06T08:58:16.244Z,86.99
2023-03-06T08:59:16.204Z,86.78
2023-03-06T09:00:16.235Z,86.99
2023-03-06T09:01:16.221Z,87.09
2023-03-06T09:02:16.207Z,86.99
2023-03-06T09:03:16.191Z,86.57
2023-03-06T09:04:16.146Z,86.47
2023-03-06T09:05:16.135Z,86.26
2023-03-06T09:06:16.146Z,86.05
2023-03-06T09:07:16.138Z,85.43
2023-03-06T09:08:16.137Z,84.60
2023-03-06T09:09:16.108Z,84.50
2023-03-06T09:10:16.170Z,84.70
2023-03-06T09:11:16.078Z,84.70
2023-03-06T09:12:16.067Z,84.91
2023-03-06T09:13:16.078Z,84.81
2023-03-06T09:14:16.051Z,84.39
2023-03-06T09:15:16.038Z,84.70
2023-03-06T09:16:16.032Z,85.02
2023-03-06T09:17:16.052Z,85.12
2023-03-06T09:18:16.030Z,85.12
2023-03-06T09:19:15.988Z,85.29
2023-03-06T09:20:15.987Z,84.67
2023-03-06T09:21:15.971Z,84.81
2023-03-06T09:22:15.985Z,84.50
2023-03-06T09:23:15.974Z,84.25
2023-03-06T09:24:15.944Z,84.15
2023-03-06T09:25:15.934Z,84.05
2023-03-06T09:26:15.934Z,84.15
2023-03-06T09:27:15.917Z,83.53
2023-03-06T09:28:15.928Z,83.53
2023-03-06T09:29:15.898Z,83.84
2023-03-06T09:30:15.895Z,83.94
2023-03-06T09:31:15.924Z,83.73
2023-03-06T09:32:15.924Z,83.01
2023-03-06T09:33:15.875Z,81.76
2023-03-06T09:34:15.849Z,81.62
2023-03-06T09:35:15.829Z,81.72
2023-03-06T09:36:15.821Z,82.34
2023-03-06T09:37:16.346Z,82.76
2023-03-06T09:38:15.822Z,82.55
2023-03-06T09:39:15.790Z,80.68
2023-03-06T09:40:15.783Z,80.58
2023-03-06T09:41:15.784Z,79.96
2023-03-06T09:42:15.762Z,79.34
2023-03-06T09:43:15.764Z,78.37
2023-03-06T09:44:15.758Z,78.27
2023-03-06T09:45:15.731Z,78.37
2023-03-06T09:46:15.770Z,78.37
2023-03-06T09:47:15.720Z,78.58
2023-03-06T09:48:15.730Z,78.27
2023-03-06T09:49:15.705Z,77.64
2023-03-06T09:50:15.696Z,77.23
2023-03-06T09:51:15.673Z,75.95
2023-03-06T09:52:15.716Z,74.81
2023-03-06T09:53:15.663Z,74.50
2023-03-06T09:54:15.685Z,74.19
2023-03-06T09:55:15.651Z,72.42
2023-03-06T09:56:15.635Z,72.71
2023-03-06T09:57:15.602Z,72.08
2023-03-06T09:58:15.604Z,70.53
2023-03-06T09:59:15.605Z,71.04
2023-03-06T10:00:15.572Z,71.88
2023-03-06T10:01:15.661Z,72.08
2023-03-06T10:02:16.701Z,71.53
2023-03-06T10:03:15.653Z,71.84
2023-03-06T10:04:15.553Z,71.94
2023-03-06T10:05:15.613Z,72.15
2023-03-06T10:06:15.519Z,72.46
2023-03-06T10:07:15.522Z,71.94
2023-03-06T10:08:15.505Z,71.53
2023-03-06T10:09:15.506Z,72.25
2023-03-06T10:10:15.495Z,72.33
2023-03-06T10:11:15.477Z,69.95
2023-03-06T10:12:15.470Z,69.74
2023-03-06T10:13:15.474Z,69.53
2023-03-06T10:14:15.461Z,69.43
2023-03-06T10:15:15.418Z,69.12
2023-03-06T10:16:15.480Z,68.15
2023-03-06T10:17:15.402Z,67.95
2023-03-06T10:18:15.399Z,68.26
2023-03-06T10:19:15.420Z,68.64
2023-03-06T10:20:15.377Z,68.43
2023-03-06T10:21:19.373Z,68.12
2023-03-06T10:22:15.351Z,67.61
2023-03-06T10:23:15.332Z,65.12
2023-03-06T10:24:15.344Z,64.71
2023-03-06T10:25:15.303Z,62.44
2023-03-06T10:26:15.332Z,62.75
2023-03-06T10:27:15.305Z,63.37
2023-03-06T10:28:15.314Z,63.26
2023-03-06T10:29:15.285Z,63.57
2023-03-06T10:30:15.256Z,63.47
2023-03-06T10:31:15.272Z,63.06
2023-03-06T10:32:15.281Z,63.99
2023-03-06T10:33:15.233Z,64.92
2023-03-06T10:34:15.246Z,65.64
2023-03-06T10:35:15.213Z,65.64
2023-03-06T10:36:15.300Z,64.81
2023-03-06T10:37:15.214Z,63.06
2023-03-06T10:38:15.179Z,63.47
2023-03-06T10:39:15.178Z,63.89
2023-03-06T10:40:15.155Z,64.61
2023-03-06T10:41:15.147Z,65.33
2023-03-06T10:42:15.149Z,64.40
2023-03-06T10:43:15.128Z,64.51
2023-03-06T10:44:15.130Z,64.51
2023-03-06T10:45:15.126Z,64.61
2023-03-06T10:46:15.201Z,63.47
2023-03-06T10:47:15.091Z,63.47
2023-03-06T10:48:15.079Z,63.40
2023-03-06T10:49:15.081Z,63.50
2023-03-06T10:50:15.054Z,64.02
2023-03-06T10:51:18.640Z,64.12
2023-03-06T10:52:15.038Z,62.98
2023-03-06T10:53:15.023Z,63.50
2023-03-06T10:54:15.026Z,63.50
2023-03-06T10:55:15.004Z,62.77
2023-03-06T10:56:14.982Z,63.19
2023-03-06T10:57:14.983Z,63.40
2023-03-06T10:58:14.964Z,63.95
2023-03-06T10:59:15.019Z,63.84
2023-03-06T11:00:14.991Z,64.36
2023-03-06T11:01:15.032Z,64.36
2023-03-06T11:02:14.926Z,64.46
2023-03-06T11:03:14.917Z,64.56
2023-03-06T11:04:14.920Z,65.19
2023-03-06T11:05:14.898Z,65.29
2023-03-06T11:06:14.916Z,64.04
2023-03-06T11:07:14.890Z,63.84
2023-03-06T11:08:14.904Z,63.64
2023-03-06T11:09:14.906Z,64.67
2023-03-06T11:10:14.840Z,64.77
2023-03-06T11:11:15.900Z,64.56
2023-03-06T11:12:14.817Z,64.36
2023-03-06T11:13:14.819Z,64.46
2023-03-06T11:14:14.817Z,64.04
2023-03-06T11:15:14.804Z,63.53
2023-03-06T11:16:14.827Z,63.32
2023-03-06T11:17:14.770Z,63.74
2023-03-06T11:18:14.757Z,64.25
2023-03-06T11:19:14.780Z,65.91
2023-03-06T11:20:14.776Z,64.46
2023-03-06T11:21:14.734Z,64.15
2023-03-06T11:22:14.724Z,63.64
2023-03-06T11:23:14.722Z,63.64
2023-03-06T11:24:14.726Z,63.74
2023-03-06T11:25:14.852Z,64.46
2023-03-06T11:26:14.672Z,64.46
2023-03-06T11:27:14.678Z,64.36
2023-03-06T11:28:14.668Z,63.92
2023-03-06T11:29:14.711Z,63.92
2023-03-06T11:30:14.629Z,64.43
2023-03-06T11:31:14.655Z,64.23
2023-03-06T11:32:14.641Z,63.89
2023-03-06T11:33:14.603Z,63.68
2023-03-06T11:34:14.603Z,63.57
2023-03-06T11:35:14.584Z,63.47
2023-03-06T11:36:14.579Z,63.68
2023-03-06T11:37:14.572Z,63.26
2023-03-06T11:38:14.570Z,63.06
2023-03-06T11:39:15.581Z,63.78
2023-03-06T11:40:14.521Z,63.34
2023-03-06T11:41:14.520Z,63.03
2023-03-06T11:42:14.503Z,63.54
2023-03-06T11:43:14.497Z,62.41
2023-03-06T11:44:14.503Z,62.65
2023-03-06T11:45:14.472Z,62.44
2023-03-06T11:46:14.472Z,62.85
2023-03-06T11:47:14.473Z,63.47
2023-03-06T11:48:14.445Z,63.37
2023-03-06T11:49:14.445Z,63.57
2023-03-06T11:50:14.424Z,63.68
2023-03-06T11:51:14.418Z,64.09
2023-03-06T11:52:14.395Z,63.78
2023-03-06T11:53:14.396Z,63.78
2023-03-06T11:54:14.397Z,64.20
2023-03-06T11:55:14.377Z,64.51
2023-03-06T11:56:14.364Z,64.09
2023-03-06T11:57:14.348Z,64.40
2023-03-06T11:58:14.342Z,64.20
2023-03-06T11:59:14.353Z,64.30
2023-03-06T12:00:14.334Z,63.89
2023-03-06T12:01:14.315Z,63.99
2023-03-06T12:02:14.357Z,63.81
2023-03-06T12:03:14.291Z,63.81
2023-03-06T12:04:14.310Z,63.60
2023-03-06T12:05:14.305Z,63.09
2023-03-06T12:06:14.257Z,63.71
2023-03-06T12:07:14.251Z,63.71
2023-03-06T12:08:14.236Z,63.81
2023-03-06T12:09:14.256Z,63.81
2023-03-06T12:10:14.220Z,64.23
2023-03-06T12:11:14.228Z,64.67
2023-03-06T12:12:14.221Z,64.46
2023-03-06T12:13:14.185Z,64.56
2023-03-06T12:14:14.202Z,64.87
2023-03-06T12:15:14.167Z,64.98
2023-03-06T12:16:14.168Z,65.08
2023-03-06T12:17:14.139Z,65.39
2023-03-06T12:18:14.134Z,65.39
2023-03-06T12:19:14.151Z,65.08
2023-03-06T12:20:14.106Z,64.77
2023-03-06T12:21:14.108Z,65.19
2023-03-06T12:22:14.087Z,65.29
2023-03-06T12:23:15.780Z,66.02
2023-03-06T12:24:14.087Z,65.63
2023-03-06T12:25:14.058Z,66.05
2023-03-06T12:26:14.048Z,66.35
2023-03-06T12:27:14.048Z,66.05
2023-03-06T12:28:14.037Z,65.63
2023-03-06T12:29:14.049Z,65.84
2023-03-06T12:30:14.023Z,66.15
2023-03-06T12:31:14.016Z,66.66
2023-03-06T12:32:14.114Z,66.80
2023-03-06T12:33:13.989Z,66.80
2023-03-06T12:34:13.967Z,67.11
2023-03-06T12:35:13.981Z,67.52
2023-03-06T12:36:13.950Z,68.04
2023-03-06T12:37:13.942Z,67.73
2023-03-06T12:38:13.942Z,67.73
2023-03-06T12:39:13.918Z,67.94
2023-03-06T12:40:13.925Z,67.73
2023-03-06T12:41:13.904Z,68.04
2023-03-06T12:42:22.657Z,68.04
2023-03-06T12:43:14.876Z,68.35
2023-03-06T12:44:13.863Z,68.66
2023-03-06T12:45:13.865Z,68.46
2023-03-06T12:46:13.906Z,68.15
2023-03-06T12:47:13.840Z,68.77
2023-03-06T12:48:13.814Z,68.66
2023-03-06T12:49:22.984Z,68.87
2023-03-06T12:50:14.830Z,68.77
2023-03-06T12:51:13.797Z,68.56
2023-03-06T12:52:16.048Z,68.56
2023-03-06T12:53:13.788Z,68.87